Time;durP1;ratioP1;P1;durP2;ratioP2;P2;SDS_P1;SDS_P2;PMS_P1;PMS_P2;Temp;Humidity;BMP_temperature;BMP_pressure;BME280_temperature;BME280_humidity;BME280_pressure;Samples;Min_cycle;Max_cycle;Signal;HPM_P1;HPM_P2
2024/03/20 00:01:05;;;;;;;28.30;25.50;;;12.40;99.90;;;;;;4878952;29;21043;-70
2024/03/20 00:03:34;;;;;;;26.27;23.90;;;12.40;99.90;;;;;;4878864;29;20450;-70
2024/03/20 00:06:01;;;;;;;24.20;21.70;;;12.40;99.90;;;;;;4878811;29;20460;-70
2024/03/20 00:08:29;;;;;;;25.43;22.60;;;12.40;99.90;;;;;;4879360;29;20459;-70
2024/03/20 00:10:57;;;;;;;25.03;22.70;;;12.40;99.90;;;;;;4878647;29;21043;-69
2024/03/20 00:13:24;;;;;;;23.00;20.70;;;12.40;99.90;;;;;;4878299;29;20605;-70
2024/03/20 00:15:52;;;;;;;24.23;22.00;;;12.40;99.90;;;;;;4878834;29;20447;-70
2024/03/20 00:18:19;;;;;;;25.30;22.93;;;12.40;99.90;;;;;;4878797;29;20447;-70
2024/03/20 00:20:48;;;;;;;26.07;23.57;;;12.30;99.90;;;;;;4878675;29;20466;-70
2024/03/20 00:23:15;;;;;;;24.13;22.00;;;12.30;99.90;;;;;;4878862;29;20458;-71
2024/03/20 00:25:43;;;;;;;24.07;21.93;;;12.30;99.90;;;;;;4879127;29;20958;-71
2024/03/20 00:28:10;;;;;;;25.53;23.30;;;12.30;99.90;;;;;;4878662;29;20461;-70
2024/03/20 00:30:38;;;;;;;24.63;22.43;;;12.30;99.90;;;;;;4863146;29;20557;-71
2024/03/20 00:33:06;;;;;;;25.83;23.53;;;12.30;99.90;;;;;;4878806;29;20558;-70
2024/03/20 00:35:34;;;;;;;26.47;23.83;;;12.30;99.90;;;;;;4878655;29;21043;-70
2024/03/20 00:38:02;;;;;;;27.10;24.70;;;12.30;99.90;;;;;;4878712;29;20456;-71
2024/03/20 00:40:30;;;;;;;28.57;25.93;;;12.30;99.90;;;;;;4878302;29;20856;-71
2024/03/20 00:42:57;;;;;;;26.77;24.17;;;12.30;99.90;;;;;;4878404;29;20879;-70
2024/03/20 00:45:24;;;;;;;26.30;24.00;;;12.20;99.90;;;;;;4878437;29;20473;-71
2024/03/20 00:47:52;;;;;;;27.67;24.87;;;12.20;99.90;;;;;;4878776;29;20855;-71
2024/03/20 00:50:19;;;;;;;26.77;24.27;;;12.20;99.90;;;;;;4878308;29;20569;-71
2024/03/20 00:52:46;;;;;;;25.00;22.80;;;12.20;99.90;;;;;;4878210;29;20493;-71
2024/03/20 00:55:15;;;;;;;26.20;23.80;;;12.20;99.90;;;;;;4878780;29;20855;-71
2024/03/20 00:57:43;;;;;;;25.40;22.97;;;12.20;99.90;;;;;;4878221;29;20450;-71
2024/03/20 01:00:10;;;;;;;25.00;22.70;;;12.10;99.90;;;;;;4878480;29;20481;-71
2024/03/20 01:02:38;;;;;;;26.77;24.17;;;12.10;99.90;;;;;;4878256;29;20445;-71
2024/03/20 01:05:06;;;;;;;26.97;24.57;;;12.10;99.90;;;;;;4878239;29;20948;-70
2024/03/20 01:07:33;;;;;;;27.97;25.33;;;12.10;99.90;;;;;;4878317;29;20446;-70
2024/03/20 01:10:00;;;;;;;26.33;23.93;;;12.10;99.90;;;;;;4878628;29;20466;-70
2024/03/20 01:12:29;;;;;;;25.43;23.10;;;12.10;99.90;;;;;;4878255;29;20461;-71
2024/03/20 01:14:56;;;;;;;25.97;23.67;;;12.10;99.90;;;;;;4878098;29;21020;-71
2024/03/20 01:17:24;;;;;;;26.23;23.77;;;12.00;99.90;;;;;;4878478;29;20446;-71
2024/03/20 01:19:51;;;;;;;28.67;26.10;;;12.00;99.90;;;;;;4862370;29;20868;-70
2024/03/20 01:22:18;;;;;;;26.90;24.50;;;12.00;99.90;;;;;;4878472;29;20450;-71
2024/03/20 01:24:45;;;;;;;27.00;24.20;;;12.00;99.90;;;;;;4878978;29;20545;-70
2024/03/20 01:27:13;;;;;;;27.40;24.90;;;12.00;99.90;;;;;;4882438;29;20450;-71
2024/03/20 01:29:41;;;;;;;28.30;25.50;;;12.00;99.90;;;;;;4882626;29;20975;-71
2024/03/20 01:32:08;;;;;;;25.43;22.93;;;12.00;99.90;;;;;;4882123;29;20449;-71
2024/03/20 01:34:36;;;;;;;25.87;23.47;;;11.90;99.90;;;;;;4881833;29;20519;-71
2024/03/20 01:37:03;;;;;;;28.87;26.07;;;11.90;99.90;;;;;;4881625;29;20959;-70
2024/03/20 01:39:30;;;;;;;26.77;24.40;;;11.90;99.90;;;;;;4881416;29;20474;-71
2024/03/20 01:41:58;;;;;;;27.40;24.87;;;11.90;99.90;;;;;;4881579;29;20478;-70
2024/03/20 01:44:26;;;;;;;26.10;23.83;;;11.90;99.90;;;;;;4881823;29;20514;-70
2024/03/20 01:46:55;;;;;;;26.50;24.00;;;11.90;99.90;;;;;;4882184;29;20449;-70
2024/03/20 01:49:22;;;;;;;28.17;25.67;;;11.80;99.90;;;;;;4883284;29;20450;-71
2024/03/20 01:51:49;;;;;;;26.30;23.90;;;11.80;99.90;;;;;;4897999;29;21022;-70
2024/03/20 01:54:17;;;;;;;28.20;25.50;;;11.80;99.90;;;;;;4884047;29;20457;-70
2024/03/20 01:56:44;;;;;;;26.67;24.20;;;11.80;99.90;;;;;;4882416;29;20518;-70
2024/03/20 01:59:11;;;;;;;27.07;24.70;;;11.80;99.90;;;;;;4881304;29;20878;-70
2024/03/20 02:01:39;;;;;;;27.83;25.33;;;11.80;99.90;;;;;;4881770;29;20513;-70
2024/03/20 02:04:08;;;;;;;25.57;23.27;;;11.70;99.90;;;;;;4881812;29;20530;-70
2024/03/20 02:06:35;;;;;;;25.40;23.10;;;11.70;99.90;;;;;;4885484;29;20454;-70
2024/03/20 02:09:04;;;;;;;28.40;25.90;;;11.70;99.90;;;;;;4883930;29;20450;-70
2024/03/20 02:11:32;;;;;;;25.13;22.93;;;11.70;99.90;;;;;;4883241;29;20991;-70
2024/03/20 02:14:00;;;;;;;26.23;23.83;;;11.60;99.90;;;;;;4882052;29;20526;-70
2024/03/20 02:16:28;;;;;;;26.37;23.97;;;11.60;99.90;;;;;;4881578;29;20461;-71
2024/03/20 02:18:56;;;;;;;28.77;25.97;;;11.60;99.90;;;;;;4881418;29;20990;-70
2024/03/20 02:21:25;;;;;;;27.27;24.83;;;11.50;99.90;;;;;;4897256;29;20809;-70
2024/03/20 02:23:53;;;;;;;29.20;26.67;;;11.50;99.90;;;;;;4880795;29;20523;-70
2024/03/20 02:26:20;;;;;;;27.97;25.57;;;11.50;99.90;;;;;;4880879;29;20454;-70
2024/03/20 02:28:47;;;;;;;28.13;25.50;;;11.50;99.90;;;;;;4880699;29;20454;-70
2024/03/20 02:31:16;;;;;;;28.77;26.30;;;11.40;99.90;;;;;;4880988;29;20474;-70
2024/03/20 02:33:43;;;;;;;28.50;26.10;;;11.40;99.90;;;;;;4880611;29;20552;-70
2024/03/20 02:36:10;;;;;;;28.83;26.10;;;11.40;99.90;;;;;;4880235;29;20450;-70
2024/03/20 02:38:41;;;;;;;29.00;26.40;;;11.40;99.90;;;;;;4880440;29;20457;-70
2024/03/20 02:41:09;;;;;;;29.17;26.47;;;11.30;99.90;;;;;;4880195;29;20493;-70
2024/03/20 02:43:36;;;;;;;30.50;27.70;;;11.30;99.90;;;;;;4880428;29;20506;-70
2024/03/20 02:46:04;;;;;;;26.73;24.30;;;11.30;99.90;;;;;;4880314;29;20513;-69
2024/03/20 02:48:34;;;;;;;30.37;27.47;;;11.30;99.90;;;;;;4880190;29;20511;-70
2024/03/20 02:51:01;;;;;;;29.10;26.40;;;11.30;99.90;;;;;;4880246;29;20589;-70
2024/03/20 02:53:28;;;;;;;27.23;24.77;;;11.30;99.90;;;;;;4880019;29;20445;-70
2024/03/20 02:55:57;;;;;;;31.60;28.63;;;11.30;99.90;;;;;;4880363;29;20458;-70
2024/03/20 02:58:24;;;;;;;28.90;26.40;;;11.30;99.90;;;;;;4879975;29;20454;-70
2024/03/20 03:00:51;;;;;;;29.10;26.60;;;11.20;99.90;;;;;;4879919;29;20485;-70
2024/03/20 03:03:19;;;;;;;28.97;26.37;;;11.20;99.90;;;;;;4880067;29;20478;-70
2024/03/20 03:05:46;;;;;;;28.33;25.73;;;11.20;99.90;;;;;;4879825;29;20461;-70
2024/03/20 03:08:13;;;;;;;29.50;26.83;;;11.20;99.90;;;;;;4879878;29;20446;-70
2024/03/20 03:10:40;;;;;;;29.93;26.93;;;11.20;99.90;;;;;;4879802;29;20522;-70
2024/03/20 03:13:09;;;;;;;31.33;28.17;;;11.20;99.90;;;;;;4879537;29;21076;-70
2024/03/20 03:15:36;;;;;;;28.73;26.17;;;11.20;99.90;;;;;;4879831;29;20949;-70
2024/03/20 03:18:03;;;;;;;29.90;27.17;;;11.20;99.90;;;;;;4880280;29;20506;-70
2024/03/20 03:20:31;;;;;;;29.73;26.93;;;11.20;99.90;;;;;;4879681;29;21063;-70
2024/03/20 03:22:58;;;;;;;29.17;26.30;;;11.20;99.90;;;;;;4879564;29;20502;-70
2024/03/20 03:25:25;;;;;;;32.10;29.27;;;11.10;99.90;;;;;;4880081;29;20933;-70
2024/03/20 03:27:53;;;;;;;31.73;28.83;;;11.10;99.90;;;;;;4880061;29;20454;-70
2024/03/20 03:30:21;;;;;;;28.00;25.50;;;11.10;99.90;;;;;;4879428;29;20470;-70
2024/03/20 03:32:48;;;;;;;29.97;26.90;;;11.10;99.90;;;;;;4879483;29;20502;-70
2024/03/20 03:35:16;;;;;;;28.83;26.03;;;11.10;99.90;;;;;;4894941;29;20458;-70
2024/03/20 03:37:43;;;;;;;30.80;27.87;;;11.10;99.90;;;;;;4879404;29;20506;-70
2024/03/20 03:40:11;;;;;;;29.93;27.20;;;11.10;99.90;;;;;;4879500;29;20482;-70
2024/03/20 03:42:40;;;;;;;31.10;28.10;;;11.10;99.90;;;;;;4879248;29;20446;-70
2024/03/20 03:45:08;;;;;;;33.07;29.87;;;11.10;99.90;;;;;;4879447;29;20458;-70
2024/03/20 03:47:37;;;;;;;31.30;28.27;;;11.10;99.90;;;;;;4878860;29;20453;-70
2024/03/20 03:50:06;;;;;;;33.63;30.43;;;11.10;99.90;;;;;;4879021;29;20474;-70
2024/03/20 03:52:33;;;;;;;32.90;29.90;;;11.10;99.90;;;;;;4879178;29;20571;-69
2024/03/20 03:55:00;;;;;;;33.57;30.27;;;11.10;99.90;;;;;;4879117;29;20497;-70
2024/03/20 03:57:27;;;;;;;33.47;30.37;;;11.10;99.90;;;;;;4879066;29;20450;-70
2024/03/20 03:59:55;;;;;;;35.87;32.47;;;11.00;99.90;;;;;;4878881;29;21000;-70
2024/03/20 04:02:22;;;;;;;34.03;30.70;;;11.00;99.90;;;;;;4878975;29;20477;-70
2024/03/20 04:04:51;;;;;;;34.07;30.67;;;11.00;99.90;;;;;;4878848;29;20459;-70
2024/03/20 04:07:19;;;;;;;35.17;32.07;;;11.00;99.90;;;;;;4879331;29;20877;-70
2024/03/20 04:09:46;;;;;;;33.43;30.07;;;11.00;99.90;;;;;;4879296;29;20477;-70
2024/03/20 04:12:13;;;;;;;34.97;31.87;;;11.00;99.90;;;;;;4878806;29;20557;-70
2024/03/20 04:14:40;;;;;;;35.90;32.60;;;11.00;99.90;;;;;;4879304;29;20523;-70
2024/03/20 04:17:08;;;;;;;36.73;33.43;;;11.00;99.90;;;;;;4878816;29;20453;-70
2024/03/20 04:19:35;;;;;;;34.90;31.70;;;11.00;99.90;;;;;;4878630;29;20468;-70
2024/03/20 04:22:03;;;;;;;37.30;34.03;;;11.00;99.90;;;;;;4878707;29;20450;-70
2024/03/20 04:24:31;;;;;;;36.60;33.17;;;11.00;99.90;;;;;;4878621;29;20561;-69
2024/03/20 04:26:58;;;;;;;37.60;34.10;;;11.00;99.90;;;;;;4878826;29;20820;-70
2024/03/20 04:29:26;;;;;;;39.67;36.20;;;10.90;99.90;;;;;;4878564;29;20476;-70
2024/03/20 04:31:54;;;;;;;37.33;34.00;;;10.90;99.90;;;;;;4878869;29;20499;-70
2024/03/20 04:34:21;;;;;;;39.27;35.50;;;10.90;99.90;;;;;;4878836;29;20865;-70
2024/03/20 04:36:49;;;;;;;39.63;36.07;;;10.90;99.90;;;;;;4878905;29;20457;-70
2024/03/20 04:39:19;;;;;;;39.00;35.53;;;10.90;99.90;;;;;;4878601;29;20454;-70
2024/03/20 04:41:47;;;;;;;36.50;33.00;;;10.90;99.90;;;;;;4878362;29;20474;-70
2024/03/20 04:44:15;;;;;;;37.03;33.53;;;10.90;99.90;;;;;;4878908;29;20944;-70
2024/03/20 04:46:42;;;;;;;38.33;34.63;;;10.90;99.90;;;;;;4879627;29;20826;-70
2024/03/20 04:49:10;;;;;;;36.23;32.83;;;10.90;99.90;;;;;;4878696;29;20450;-70
2024/03/20 04:51:38;;;;;;;38.90;35.20;;;10.90;99.90;;;;;;4879933;29;20622;-70
2024/03/20 04:54:05;;;;;;;40.17;36.27;;;10.90;99.90;;;;;;4879343;29;20505;-70
2024/03/20 04:56:34;;;;;;;37.33;33.90;;;10.90;99.90;;;;;;4878418;29;20898;-70
2024/03/20 04:59:01;;;;;;;38.70;35.03;;;10.90;99.90;;;;;;4878310;29;20458;-70
2024/03/20 05:01:28;;;;;;;38.70;35.23;;;10.90;99.90;;;;;;4881765;29;20831;-70
2024/03/20 05:03:56;;;;;;;37.97;34.53;;;10.90;99.90;;;;;;4882161;29;20514;-70
2024/03/20 05:06:23;;;;;;;39.60;35.80;;;10.90;99.90;;;;;;4882610;29;20984;-70
2024/03/20 05:08:50;;;;;;;39.40;35.60;;;10.90;99.90;;;;;;4882072;29;20448;-70
2024/03/20 05:11:18;;;;;;;37.40;33.93;;;10.90;99.90;;;;;;4881990;29;20533;-70
2024/03/20 05:13:47;;;;;;;38.60;34.90;;;10.90;99.90;;;;;;4881889;29;20465;-70
2024/03/20 05:16:14;;;;;;;39.37;35.77;;;10.90;99.90;;;;;;4882439;29;20457;-70
2024/03/20 05:18:41;;;;;;;36.13;32.73;;;10.90;99.90;;;;;;4897832;29;20446;-70
2024/03/20 05:21:08;;;;;;;36.07;32.90;;;10.90;99.90;;;;;;4881902;29;20913;-70
2024/03/20 05:23:35;;;;;;;37.23;33.53;;;10.90;99.90;;;;;;4882142;29;20446;-70
2024/03/20 05:26:02;;;;;;;36.70;33.20;;;10.80;99.90;;;;;;4881817;29;20450;-70
2024/03/20 05:28:28;;;;;;;37.50;34.00;;;10.80;99.90;;;;;;4881928;29;20454;-70
2024/03/20 05:30:57;;;;;;;37.07;33.57;;;10.80;99.90;;;;;;4881656;29;20478;-70
2024/03/20 05:33:23;;;;;;;36.70;33.30;;;10.80;99.90;;;;;;4882052;29;20450;-70
2024/03/20 05:35:50;;;;;;;34.80;31.67;;;10.80;99.90;;;;;;4881567;29;20462;-70
2024/03/20 05:38:17;;;;;;;37.43;33.93;;;10.80;99.90;;;;;;4881638;29;20449;-70
2024/03/20 05:40:44;;;;;;;34.97;31.77;;;10.80;99.90;;;;;;4881425;29;21010;-70
2024/03/20 05:43:10;;;;;;;37.83;34.23;;;10.80;99.90;;;;;;4881338;29;20478;-70
2024/03/20 05:45:38;;;;;;;35.23;31.70;;;10.80;99.90;;;;;;4881931;29;20509;-70
2024/03/20 05:48:06;;;;;;;35.30;31.60;;;10.80;99.90;;;;;;4882605;29;20478;-70
2024/03/20 05:50:33;;;;;;;34.03;30.60;;;10.80;99.90;;;;;;4886294;29;20466;-70
2024/03/20 05:53:00;;;;;;;36.00;32.60;;;10.80;99.90;;;;;;4884056;29;20450;-70
2024/03/20 05:55:27;;;;;;;34.77;31.47;;;10.80;99.90;;;;;;4883279;29;20902;-70
2024/03/20 05:57:53;;;;;;;34.53;31.43;;;10.80;99.90;;;;;;4882096;29;20442;-69
2024/03/20 06:00:25;;;;;;;37.30;33.57;;;10.80;99.90;;;;;;4881900;29;20855;-70
2024/03/20 06:02:51;;;;;;;34.63;31.50;;;10.80;99.90;;;;;;4881556;29;20434;-70
2024/03/20 06:05:20;;;;;;;35.67;32.23;;;10.80;99.90;;;;;;4880999;29;20451;-70
2024/03/20 06:07:46;;;;;;;35.33;31.83;;;10.80;99.90;;;;;;4880989;29;20988;-70
2024/03/20 06:10:14;;;;;;;36.57;33.20;;;10.80;99.90;;;;;;4881057;29;20876;-70
2024/03/20 06:12:42;;;;;;;37.30;33.80;;;10.90;99.90;;;;;;4880782;29;20481;-70
2024/03/20 06:15:09;;;;;;;35.23;31.83;;;10.90;99.90;;;;;;4881265;29;20454;-70
2024/03/20 06:17:38;;;;;;;36.10;32.80;;;10.90;99.90;;;;;;4880845;29;20446;-70
2024/03/20 06:20:05;;;;;;;35.67;32.17;;;10.90;99.90;;;;;;4880718;29;20530;-70
2024/03/20 06:22:35;;;;;;;34.40;31.00;;;10.90;99.90;;;;;;4881650;29;20898;-70
2024/03/20 06:25:06;;;;;;;35.13;31.80;;;10.90;99.90;;;;;;4880786;29;20446;-70
2024/03/20 06:27:34;;;;;;;36.17;32.70;;;10.90;99.90;;;;;;4881026;29;20481;-70
2024/03/20 06:30:00;;;;;;;32.63;29.33;;;10.90;99.90;;;;;;4881040;29;20473;-70
2024/03/20 06:32:30;;;;;;;31.50;28.50;;;10.90;99.90;;;;;;4880747;29;20454;-70
2024/03/20 06:34:56;;;;;;;32.93;29.83;;;10.90;99.90;;;;;;4880514;29;20975;-70
2024/03/20 06:37:24;;;;;;;32.50;29.40;;;11.00;99.90;;;;;;4881016;29;20515;-70
2024/03/20 06:39:51;;;;;;;31.87;28.87;;;11.00;99.90;;;;;;4880927;29;20474;-70
2024/03/20 06:42:20;;;;;;;31.70;29.03;;;11.00;99.90;;;;;;4880386;29;20482;-69
2024/03/20 06:44:47;;;;;;;31.43;28.57;;;11.00;99.90;;;;;;4880282;29;20455;-70
2024/03/20 06:47:14;;;;;;;32.87;29.50;;;11.00;99.90;;;;;;4880348;29;20474;-70
2024/03/20 06:49:40;;;;;;;30.70;27.90;;;11.00;99.90;;;;;;4880161;29;20454;-70
2024/03/20 06:52:08;;;;;;;31.60;28.70;;;11.10;99.90;;;;;;4896022;29;20450;-70
2024/03/20 06:54:34;;;;;;;30.33;27.23;;;11.10;99.90;;;;;;4880193;29;20537;-70
2024/03/20 06:57:03;;;;;;;30.50;27.70;;;11.10;99.90;;;;;;4880497;29;20454;-69
2024/03/20 06:59:30;;;;;;;31.87;28.67;;;11.10;99.90;;;;;;4880470;29;20442;-70
2024/03/20 07:01:58;;;;;;;30.77;27.77;;;11.10;99.90;;;;;;4880421;29;20465;-70
2024/03/20 07:04:25;;;;;;;30.73;27.80;;;11.20;99.90;;;;;;4880456;29;20502;-70
2024/03/20 07:06:53;;;;;;;30.33;27.33;;;11.20;99.90;;;;;;4879982;29;20976;-70
2024/03/20 07:09:19;;;;;;;30.20;27.20;;;11.20;99.90;;;;;;4880178;29;20821;-70
2024/03/20 07:11:48;;;;;;;28.17;25.43;;;11.20;99.90;;;;;;4879749;29;20470;-71
2024/03/20 07:14:18;;;;;;;27.40;24.93;;;11.30;99.90;;;;;;4881147;29;20829;-70
2024/03/20 07:16:45;;;;;;;26.30;23.83;;;11.30;99.90;;;;;;4879898;29;20949;-70
2024/03/20 07:19:12;;;;;;;27.30;24.80;;;11.30;99.90;;;;;;4879937;29;20482;-70
2024/03/20 07:21:38;;;;;;;26.40;23.80;;;11.30;99.90;;;;;;4880197;29;20481;-70
2024/03/20 07:24:06;;;;;;;28.00;25.40;;;11.40;99.90;;;;;;4880036;29;20525;-70
2024/03/20 07:26:37;;;;;;;26.37;23.87;;;11.40;99.90;;;;;;4880269;29;20863;-70
2024/03/20 07:29:05;;;;;;;27.83;24.13;;;11.50;99.90;;;;;;4880543;29;20438;-70
2024/03/20 07:31:33;;;;;;;25.93;23.43;;;11.50;99.90;;;;;;4879835;29;20545;-70
2024/03/20 07:34:01;;;;;;;25.63;23.17;;;11.50;99.90;;;;;;4879648;29;20454;-70
2024/03/20 07:36:27;;;;;;;25.77;23.17;;;11.60;99.90;;;;;;4864260;29;20834;-70
2024/03/20 07:38:56;;;;;;;25.67;22.90;;;11.60;99.90;;;;;;4879792;29;20450;-70
2024/03/20 07:41:23;;;;;;;26.30;23.70;;;11.70;99.90;;;;;;4879490;29;20481;-70
2024/03/20 07:43:50;;;;;;;25.20;22.70;;;11.70;99.90;;;;;;4879600;29;20450;-70
2024/03/20 07:46:18;;;;;;;22.20;20.00;;;11.80;99.90;;;;;;4879340;29;20454;-70
2024/03/20 07:48:46;;;;;;;25.42;22.88;;;11.90;99.90;;;;;;4879670;29;20461;-70
2024/03/20 07:51:15;;;;;;;23.70;21.50;;;11.90;99.90;;;;;;4879374;29;20232;-71
2024/03/20 07:53:42;;;;;;;23.10;20.70;;;12.00;99.90;;;;;;4879940;29;20454;-70
2024/03/20 07:56:09;;;;;;;23.10;20.80;;;12.10;99.90;;;;;;4879803;29;20499;-71
2024/03/20 07:58:36;;;;;;;22.80;20.50;;;12.10;99.90;;;;;;4879160;29;20458;-70
2024/03/20 08:01:04;;;;;;;22.70;20.57;;;12.20;99.90;;;;;;4878923;29;20500;-70
2024/03/20 08:03:31;;;;;;;23.70;21.40;;;12.30;99.90;;;;;;4879419;29;20483;-70
2024/03/20 08:06:00;;;;;;;21.83;19.83;;;12.30;99.90;;;;;;4879097;29;20454;-70
2024/03/20 08:08:26;;;;;;;22.57;20.37;;;12.30;99.90;;;;;;4878999;29;20952;-70
2024/03/20 08:10:53;;;;;;;23.37;21.23;;;12.40;99.90;;;;;;4879030;29;20537;-71
2024/03/20 08:13:20;;;;;;;23.30;21.20;;;12.40;99.90;;;;;;4879152;29;20804;-70
2024/03/20 08:15:48;;;;;;;22.37;20.37;;;12.50;99.90;;;;;;4879428;29;20496;-70
2024/03/20 08:18:14;;;;;;;22.90;20.80;;;12.60;99.90;;;;;;4878820;29;20450;-70
2024/03/20 08:20:41;;;;;;;21.83;19.57;;;12.60;99.90;;;;;;4878857;29;20485;-71
2024/03/20 08:23:10;;;;;;;23.60;21.10;;;12.70;99.90;;;;;;4878766;29;20526;-70
2024/03/20 08:25:37;;;;;;;21.60;19.60;;;12.70;99.90;;;;;;4879468;29;20802;-70
2024/03/20 08:28:05;;;;;;;22.30;20.10;;;12.80;99.90;;;;;;4878823;29;20446;-71
2024/03/20 08:30:32;;;;;;;21.20;19.03;;;12.90;99.90;;;;;;4878775;29;20474;-70
2024/03/20 08:32:58;;;;;;;21.50;19.30;;;13.10;99.90;;;;;;4878065;29;20502;-71
2024/03/20 08:35:26;;;;;;;19.47;17.27;;;13.20;99.90;;;;;;4878673;29;20719;-71
2024/03/20 08:37:52;;;;;;;18.87;17.07;;;13.30;99.90;;;;;;4879147;29;20465;-69
2024/03/20 08:40:21;;;;;;;18.70;16.63;;;13.40;99.90;;;;;;4894516;29;20998;-71
2024/03/20 08:42:47;;;;;;;15.90;14.20;;;13.40;99.90;;;;;;4894800;29;20478;-70
2024/03/20 08:45:14;;;;;;;17.47;15.83;;;13.50;99.90;;;;;;4879120;29;20812;-69
2024/03/20 08:47:40;;;;;;;16.07;14.47;;;13.60;99.90;;;;;;4878802;29;20530;-70
2024/03/20 08:50:09;;;;;;;15.37;12.50;;;13.70;99.90;;;;;;4878846;29;20469;-70
2024/03/20 08:52:35;;;;;;;11.87;10.63;;;13.70;99.90;;;;;;4897767;29;20478;-70
2024/03/20 08:55:03;;;;;;;13.20;11.43;;;13.80;99.90;;;;;;4881313;29;20625;-70
2024/03/20 08:57:31;;;;;;;13.70;12.40;;;13.80;99.90;;;;;;4879306;29;20875;-70
2024/03/20 09:00:00;;;;;;;12.73;11.40;;;13.90;99.90;;;;;;4881295;29;20480;-69
2024/03/20 09:02:26;;;;;;;11.30;9.20;;;14.00;99.90;;;;;;4879844;29;20486;-69
2024/03/20 09:04:53;;;;;;;10.63;8.40;;;14.10;99.90;;;;;;4879652;29;20804;-71
2024/03/20 09:07:20;;;;;;;13.07;10.17;;;14.20;99.90;;;;;;4879358;29;20462;-70
2024/03/20 09:09:47;;;;;;;16.33;8.83;;;14.20;99.90;;;;;;4878906;29;20473;-70
2024/03/20 09:12:13;;;;;;;9.93;8.47;;;14.30;99.90;;;;;;4879201;29;20470;-71
2024/03/20 09:14:42;;;;;;;9.53;7.90;;;14.30;99.90;;;;;;4879080;29;20453;-70
2024/03/20 09:17:08;;;;;;;12.13;8.33;;;14.30;99.90;;;;;;4879133;29;20474;-71
2024/03/20 09:19:35;;;;;;;11.77;9.27;;;14.40;99.90;;;;;;4878749;29;20798;-71
2024/03/20 09:22:04;;;;;;;10.77;9.30;;;14.50;99.90;;;;;;4878688;29;20842;-71
2024/03/20 09:24:31;;;;;;;13.50;10.67;;;14.50;99.90;;;;;;4878743;29;20561;-71
2024/03/20 09:26:57;;;;;;;12.53;10.33;;;14.60;99.90;;;;;;4879104;29;20462;-70
2024/03/20 09:29:25;;;;;;;17.60;13.53;;;14.70;99.90;;;;;;4879071;29;20454;-70
2024/03/20 09:31:52;;;;;;;12.17;10.73;;;14.70;99.90;;;;;;4881883;29;20509;-70
2024/03/20 09:34:20;;;;;;;11.17;10.07;;;14.80;99.90;;;;;;4881532;29;20458;-70
2024/03/20 09:36:49;;;;;;;9.80;8.70;;;14.90;99.90;;;;;;4879683;29;20482;-70
2024/03/20 09:39:16;;;;;;;10.73;9.07;;;15.00;99.90;;;;;;4878754;29;20457;-71
2024/03/20 09:41:43;;;;;;;12.70;9.20;;;15.00;99.90;;;;;;4878575;29;20823;-71
2024/03/20 09:44:14;;;;;;;10.60;9.10;;;15.00;99.90;;;;;;4878793;29;20513;-71
2024/03/20 09:46:40;;;;;;;12.27;8.17;;;15.10;99.90;;;;;;4864719;29;20470;-71
2024/03/20 09:49:09;;;;;;;9.67;7.70;;;15.10;99.90;;;;;;4881434;29;20463;-71
2024/03/20 09:51:36;;;;;;;11.03;7.00;;;15.20;99.90;;;;;;4881593;29;20477;-71
2024/03/20 09:54:05;;;;;;;9.03;5.60;;;15.20;99.90;;;;;;4881279;29;20454;-71
2024/03/20 09:56:32;;;;;;;7.77;6.10;;;15.30;99.90;;;;;;4881252;29;20461;-70
2024/03/20 09:59:00;;;;;;;10.10;6.43;;;15.30;99.90;;;;;;4881264;29;20454;-71
2024/03/20 10:01:26;;;;;;;8.13;6.77;;;15.30;99.90;;;;;;4881078;29;20453;-71
2024/03/20 10:03:54;;;;;;;9.50;7.30;;;15.30;99.90;;;;;;4881335;29;20454;-71
2024/03/20 10:06:23;;;;;;;8.50;6.40;;;15.40;99.90;;;;;;4881099;29;20501;-71
2024/03/20 10:08:51;;;;;;;7.63;6.37;;;15.50;99.90;;;;;;4881257;29;20425;-71
2024/03/20 10:11:18;;;;;;;8.93;6.70;;;15.50;99.90;;;;;;4881281;29;21007;-71
2024/03/20 10:13:45;;;;;;;8.60;7.73;;;15.60;99.90;;;;;;4881295;29;20457;-71
2024/03/20 10:16:14;;;;;;;7.80;6.50;;;15.60;99.90;;;;;;4880882;29;20940;-71
2024/03/20 10:18:42;;;;;;;9.70;6.30;;;15.70;99.90;;;;;;4880760;29;20442;-70
2024/03/20 10:21:09;;;;;;;8.37;6.50;;;15.70;99.90;;;;;;4880873;29;20470;-71
2024/03/20 10:23:40;;;;;;;13.40;6.97;;;15.80;99.90;;;;;;4880716;29;20425;-71
2024/03/20 10:26:06;;;;;;;8.03;6.53;;;15.80;99.90;;;;;;4880713;29;20443;-71
2024/03/20 10:28:35;;;;;;;6.93;6.23;;;15.90;99.90;;;;;;4880672;29;21032;-71
2024/03/20 10:31:05;;;;;;;7.73;6.40;;;15.90;99.90;;;;;;4880486;29;20464;-71
2024/03/20 10:33:34;;;;;;;6.43;5.83;;;15.90;99.90;;;;;;4880463;29;20540;-71
2024/03/20 10:36:01;;;;;;;9.53;7.00;;;15.90;99.90;;;;;;4880537;29;20470;-71
2024/03/20 10:38:29;;;;;;;7.97;6.43;;;15.90;99.90;;;;;;4880505;29;20468;-71
2024/03/20 10:40:57;;;;;;;8.80;6.90;;;15.90;99.90;;;;;;4880463;29;20550;-71
2024/03/20 10:43:25;;;;;;;8.17;6.77;;;15.90;99.90;;;;;;4880357;29;20457;-71
2024/03/20 10:45:53;;;;;;;8.43;7.40;;;16.00;99.90;;;;;;4880786;29;20449;-71
2024/03/20 10:48:22;;;;;;;8.97;7.30;;;16.00;99.90;;;;;;4880437;29;20428;-71
2024/03/20 10:50:49;;;;;;;8.37;7.37;;;16.10;99.90;;;;;;4880112;29;20470;-71
2024/03/20 10:53:17;;;;;;;8.80;7.30;;;16.10;99.90;;;;;;4880193;29;20764;-71
2024/03/20 10:55:45;;;;;;;8.40;7.17;;;16.10;99.90;;;;;;4880703;29;20461;-71
2024/03/20 10:58:17;;;;;;;7.47;6.00;;;16.20;99.90;;;;;;4879921;29;20454;-71
2024/03/20 11:00:47;;;;;;;8.33;6.37;;;16.20;99.90;;;;;;4880275;29;20466;-71
2024/03/20 11:03:43;;;;;;;7.60;6.80;;;16.20;99.90;;;;;;4879991;29;20800;-71
2024/03/20 11:06:41;;;;;;;8.53;6.23;;;16.20;99.90;;;;;;4880062;29;20800;-71
2024/03/20 11:09:23;;;;;;;10.00;7.10;;;16.20;99.90;;;;;;4879961;29;20438;-72
2024/03/20 11:11:52;;;;;;;7.33;6.60;;;16.30;99.90;;;;;;4879837;29;20803;-71
2024/03/20 11:14:30;;;;;;;9.00;5.40;;;16.30;99.90;;;;;;4895877;29;20438;-71
2024/03/20 11:17:03;;;;;;;8.50;5.57;;;16.40;99.90;;;;;;4880358;29;20466;-72
2024/03/20 11:19:30;;;;;;;7.73;5.07;;;16.50;99.90;;;;;;4879692;29;20436;-71
2024/03/20 11:22:00;;;;;;;9.97;4.63;;;16.50;99.90;;;;;;4879679;29;20975;-71
2024/03/20 11:24:28;;;;;;;8.00;6.50;;;16.60;99.90;;;;;;4879698;29;20472;-71
2024/03/20 11:27:02;;;;;;;6.73;5.87;;;16.60;99.90;;;;;;4879863;29;20911;-71
2024/03/20 11:29:31;;;;;;;6.93;6.23;;;16.60;99.90;;;;;;4879481;29;20442;-71
2024/03/20 11:31:59;;;;;;;9.63;5.67;;;16.60;99.90;;;;;;4879569;29;20429;-71
2024/03/20 11:34:25;;;;;;;8.30;6.40;;;16.70;99.90;;;;;;4880067;29;20461;-71
2024/03/20 11:36:53;;;;;;;9.23;6.40;;;16.70;99.90;;;;;;4879512;29;20432;-71
2024/03/20 11:39:19;;;;;;;6.93;6.27;;;16.70;99.90;;;;;;4879388;29;20532;-71
2024/03/20 11:41:48;;;;;;;7.23;5.77;;;16.70;99.90;;;;;;4879180;29;20509;-72
2024/03/20 11:44:14;;;;;;;8.00;6.23;;;16.80;99.90;;;;;;4894868;29;20428;-71
2024/03/20 11:46:42;;;;;;;7.77;5.67;;;16.80;99.90;;;;;;4879469;29;20991;-71
2024/03/20 11:49:09;;;;;;;8.60;6.83;;;16.80;99.90;;;;;;4879239;29;20421;-71
2024/03/20 11:51:38;;;;;;;8.20;5.90;;;16.80;99.90;;;;;;4879103;29;20501;-72
2024/03/20 11:54:05;;;;;;;8.03;5.90;;;16.80;99.90;;;;;;4879218;29;20461;-71
2024/03/20 11:56:35;;;;;;;8.00;6.90;;;16.90;99.90;;;;;;4879282;29;20466;-72
2024/03/20 11:59:02;;;;;;;7.23;6.50;;;16.90;99.90;;;;;;4879360;29;20479;-71
2024/03/20 12:01:29;;;;;;;8.30;6.70;;;17.00;99.90;;;;;;4878969;29;21018;-72
2024/03/20 12:03:57;;;;;;;9.20;7.20;;;17.00;99.90;;;;;;4878846;29;20445;-71
2024/03/20 12:06:26;;;;;;;7.67;6.80;;;17.00;99.90;;;;;;4878839;29;20429;-71
2024/03/20 12:08:55;;;;;;;8.67;7.23;;;17.10;99.90;;;;;;4878428;29;20459;-71
2024/03/20 12:11:28;;;;;;;8.17;7.37;;;17.10;99.90;;;;;;4879229;29;20931;-72
2024/03/20 12:13:55;;;;;;;10.47;7.17;;;17.20;99.90;;;;;;4878771;29;20432;-71
2024/03/20 12:16:23;;;;;;;9.30;7.37;;;17.20;99.90;;;;;;4878826;29;20442;-72
2024/03/20 12:18:51;;;;;;;10.37;7.63;;;17.30;99.90;;;;;;4878747;29;20523;-72
2024/03/20 12:21:21;;;;;;;10.03;7.30;;;17.30;99.90;;;;;;4894267;29;20502;-71
2024/03/20 12:23:49;;;;;;;8.37;7.47;;;17.30;99.90;;;;;;4878658;29;20474;-72
2024/03/20 12:26:19;;;;;;;11.23;7.43;;;17.30;99.90;;;;;;4878659;29;20468;-72
2024/03/20 12:28:46;;;;;;;9.10;8.13;;;17.30;99.90;;;;;;4878532;29;20465;-72
2024/03/20 12:31:17;;;;;;;9.13;7.23;;;17.40;99.90;;;;;;4863292;29;20477;-71
2024/03/20 12:33:44;;;;;;;10.07;8.97;;;17.40;99.90;;;;;;4878906;29;20438;-72